sensor_id;sensor_type;location;lat;lon;timestamp;pressure;altitude;pressure_sealevel;temperature;humidity
65276;BME280;51875;49.994;14.052;2023-01-30T00:01:13;98577.47;;;-1.71;100.00
65276;BME280;51875;49.994;14.052;2023-01-30T00:02:30;98572.69;;;-1.92;100.00
65276;BME280;51875;49.994;14.052;2023-01-30T00:03:45;98578.28;;;-2.08;100.00
65276;BME280;51875;49.994;14.052;2023-01-30T00:05:01;98570.38;;;-1.81;100.00
65276;BME280;51875;49.994;14.052;2023-01-30T00:06:17;98564.00;;;-1.97;100.00
65276;BME280;51875;49.994;14.052;2023-01-30T00:07:33;98555.63;;;-1.90;100.00
65276;BME280;51875;49.994;14.052;2023-01-30T00:08:49;98554.91;;;-1.82;100.00
65276;BME280;51875;49.994;14.052;2023-01-30T00:10:05;98556.88;;;-1.72;100.00
65276;BME280;51875;49.994;14.052;2023-01-30T00:11:21;98543.44;;;-1.99;100.00
65276;BME280;51875;49.994;14.052;2023-01-30T00:12:37;98544.34;;;-1.96;100.00
65276;BME280;51875;49.994;14.052;2023-01-30T00:13:52;98550.28;;;-2.34;100.00
65276;BME280;51875;49.994;14.052;2023-01-30T00:15:08;98545.53;;;-2.17;100.00
65276;BME280;51875;49.994;14.052;2023-01-30T00:16:24;98545.47;;;-2.20;100.00
65276;BME280;51875;49.994;14.052;2023-01-30T00:17:40;98551.19;;;-2.31;100.00
65276;BME280;51875;49.994;14.052;2023-01-30T00:18:55;98547.88;;;-1.93;100.00
65276;BME280;51875;49.994;14.052;2023-01-30T00:20:11;98547.41;;;-2.11;100.00
65276;BME280;51875;49.994;14.052;2023-01-30T00:21:27;98543.47;;;-2.32;100.00
65276;BME280;51875;49.994;14.052;2023-01-30T00:22:42;98540.41;;;-2.19;100.00
65276;BME280;51875;49.994;14.052;2023-01-30T00:23:58;98540.53;;;-2.13;100.00
65276;BME280;51875;49.994;14.052;2023-01-30T00:25:15;98532.84;;;-2.13;100.00
65276;BME280;51875;49.994;14.052;2023-01-30T00:26:30;98540.22;;;-2.27;100.00
65276;BME280;51875;49.994;14.052;2023-01-30T00:27:46;98535.28;;;-2.17;100.00
65276;BME280;51875;49.994;14.052;2023-01-30T00:29:02;98540.69;;;-2.06;100.00
65276;BME280;51875;49.994;14.052;2023-01-30T00:30:18;98534.47;;;-2.16;100.00
65276;BME280;51875;49.994;14.052;2023-01-30T00:31:33;98537.47;;;-1.97;100.00
65276;BME280;51875;49.994;14.052;2023-01-30T00:32:53;98533.13;;;-2.00;100.00
65276;BME280;51875;49.994;14.052;2023-01-30T00:34:09;98529.91;;;-1.93;100.00
65276;BME280;51875;49.994;14.052;2023-01-30T00:35:25;98530.44;;;-2.05;100.00
65276;BME280;51875;49.994;14.052;2023-01-30T00:36:43;98531.28;;;-2.06;100.00
65276;BME280;51875;49.994;14.052;2023-01-30T00:37:59;98524.50;;;-2.04;100.00
65276;BME280;51875;49.994;14.052;2023-01-30T00:39:15;98519.53;;;-1.96;100.00
65276;BME280;51875;49.994;14.052;2023-01-30T00:40:30;98518.56;;;-2.01;100.00
65276;BME280;51875;49.994;14.052;2023-01-30T00:41:46;98521.69;;;-2.15;100.00
65276;BME280;51875;49.994;14.052;2023-01-30T00:43:20;98511.72;;;-2.02;100.00
65276;BME280;51875;49.994;14.052;2023-01-30T00:44:54;98512.72;;;-1.95;100.00
65276;BME280;51875;49.994;14.052;2023-01-30T00:46:30;98503.50;;;-1.87;100.00
65276;BME280;51875;49.994;14.052;2023-01-30T00:48:05;98502.56;;;-1.91;100.00
65276;BME280;51875;49.994;14.052;2023-01-30T00:49:21;98502.31;;;-2.02;100.00
65276;BME280;51875;49.994;14.052;2023-01-30T00:50:36;98505.06;;;-1.94;100.00
65276;BME280;51875;49.994;14.052;2023-01-30T00:51:58;98500.78;;;-1.95;100.00
65276;BME280;51875;49.994;14.052;2023-01-30T00:53:15;98505.25;;;-1.85;100.00
65276;BME280;51875;49.994;14.052;2023-01-30T00:54:31;98502.59;;;-1.89;100.00
65276;BME280;51875;49.994;14.052;2023-01-30T00:55:46;98495.66;;;-1.93;100.00
65276;BME280;51875;49.994;14.052;2023-01-30T00:57:02;98493.88;;;-1.96;100.00
65276;BME280;51875;49.994;14.052;2023-01-30T00:58:18;98488.75;;;-1.96;100.00
65276;BME280;51875;49.994;14.052;2023-01-30T00:59:34;98490.50;;;-1.95;100.00
65276;BME280;51875;49.994;14.052;2023-01-30T01:00:50;98488.19;;;-2.21;100.00
65276;BME280;51875;49.994;14.052;2023-01-30T01:02:06;98485.75;;;-2.16;100.00
65276;BME280;51875;49.994;14.052;2023-01-30T01:03:22;98489.69;;;-1.94;100.00
65276;BME280;51875;49.994;14.052;2023-01-30T01:04:37;98493.25;;;-1.87;100.00
65276;BME280;51875;49.994;14.052;2023-01-30T01:05:57;98485.78;;;-1.75;100.00
65276;BME280;51875;49.994;14.052;2023-01-30T01:07:14;98488.41;;;-1.73;100.00
65276;BME280;51875;49.994;14.052;2023-01-30T01:08:30;98486.78;;;-1.68;100.00
65276;BME280;51875;49.994;14.052;2023-01-30T01:09:45;98484.31;;;-1.65;100.00
65276;BME280;51875;49.994;14.052;2023-01-30T01:11:01;98488.41;;;-1.73;100.00
65276;BME280;51875;49.994;14.052;2023-01-30T01:12:18;98487.38;;;-1.81;100.00
65276;BME280;51875;49.994;14.052;2023-01-30T01:13:34;98485.38;;;-1.93;100.00
65276;BME280;51875;49.994;14.052;2023-01-30T01:14:49;98486.34;;;-1.90;100.00
65276;BME280;51875;49.994;14.052;2023-01-30T01:16:05;98482.97;;;-1.87;100.00
65276;BME280;51875;49.994;14.052;2023-01-30T01:17:21;98480.19;;;-1.96;100.00
65276;BME280;51875;49.994;14.052;2023-01-30T01:18:36;98480.09;;;-2.01;100.00
65276;BME280;51875;49.994;14.052;2023-01-30T01:19:52;98477.88;;;-1.86;100.00
65276;BME280;51875;49.994;14.052;2023-01-30T01:21:07;98480.25;;;-1.93;100.00
65276;BME280;51875;49.994;14.052;2023-01-30T01:22:23;98481.41;;;-1.80;100.00
65276;BME280;51875;49.994;14.052;2023-01-30T01:23:39;98473.41;;;-1.94;100.00
65276;BME280;51875;49.994;14.052;2023-01-30T01:24:55;98476.06;;;-1.90;100.00
65276;BME280;51875;49.994;14.052;2023-01-30T01:26:10;98477.81;;;-1.89;100.00
65276;BME280;51875;49.994;14.052;2023-01-30T01:27:27;98480.66;;;-1.76;100.00
65276;BME280;51875;49.994;14.052;2023-01-30T01:28:43;98482.66;;;-1.61;100.00
65276;BME280;51875;49.994;14.052;2023-01-30T01:29:58;98484.84;;;-1.80;100.00
65276;BME280;51875;49.994;14.052;2023-01-30T01:31:15;98487.69;;;-1.67;100.00
65276;BME280;51875;49.994;14.052;2023-01-30T01:32:31;98491.94;;;-1.68;100.00
65276;BME280;51875;49.994;14.052;2023-01-30T01:33:47;98480.25;;;-1.55;100.00
65276;BME280;51875;49.994;14.052;2023-01-30T01:35:03;98472.59;;;-1.52;100.00
65276;BME280;51875;49.994;14.052;2023-01-30T01:36:19;98470.00;;;-1.53;100.00
65276;BME280;51875;49.994;14.052;2023-01-30T01:37:34;98480.91;;;-1.64;100.00
65276;BME280;51875;49.994;14.052;2023-01-30T01:38:50;98488.00;;;-1.52;100.00
65276;BME280;51875;49.994;14.052;2023-01-30T01:40:07;98477.53;;;-1.61;100.00
65276;BME280;51875;49.994;14.052;2023-01-30T01:41:41;98479.69;;;-1.40;100.00
65276;BME280;51875;49.994;14.052;2023-01-30T01:42:57;98484.81;;;-1.42;100.00
65276;BME280;51875;49.994;14.052;2023-01-30T01:44:13;98478.19;;;-1.29;100.00
65276;BME280;51875;49.994;14.052;2023-01-30T01:45:31;98478.66;;;-1.48;100.00
65276;BME280;51875;49.994;14.052;2023-01-30T01:46:56;98493.34;;;-1.43;100.00
65276;BME280;51875;49.994;14.052;2023-01-30T01:48:24;98484.16;;;-1.31;100.00
65276;BME280;51875;49.994;14.052;2023-01-30T01:49:41;98497.66;;;-1.40;100.00
65276;BME280;51875;49.994;14.052;2023-01-30T01:51:14;98490.66;;;-1.06;100.00
65276;BME280;51875;49.994;14.052;2023-01-30T01:52:31;98495.44;;;-1.24;100.00
65276;BME280;51875;49.994;14.052;2023-01-30T01:53:54;98493.34;;;-1.43;100.00
65276;BME280;51875;49.994;14.052;2023-01-30T01:55:11;98501.25;;;-1.32;100.00
65276;BME280;51875;49.994;14.052;2023-01-30T01:56:28;98491.88;;;-1.30;100.00
65276;BME280;51875;49.994;14.052;2023-01-30T01:57:50;98502.34;;;-1.20;100.00
65276;BME280;51875;49.994;14.052;2023-01-30T01:59:12;98490.78;;;-1.43;100.00
65276;BME280;51875;49.994;14.052;2023-01-30T02:00:30;98499.94;;;-1.54;100.00
65276;BME280;51875;49.994;14.052;2023-01-30T02:01:46;98503.81;;;-1.32;100.00
65276;BME280;51875;49.994;14.052;2023-01-30T02:03:06;98499.16;;;-1.50;100.00
65276;BME280;51875;49.994;14.052;2023-01-30T02:04:25;98484.91;;;-1.35;100.00
65276;BME280;51875;49.994;14.052;2023-01-30T02:06:02;98482.34;;;-1.37;100.00
65276;BME280;51875;49.994;14.052;2023-01-30T02:07:19;98483.09;;;-1.41;100.00
65276;BME280;51875;49.994;14.052;2023-01-30T02:08:38;98472.06;;;-1.37;100.00
65276;BME280;51875;49.994;14.052;2023-01-30T02:09:55;98472.91;;;-1.38;100.00
65276;BME280;51875;49.994;14.052;2023-01-30T02:11:15;98466.91;;;-1.37;100.00
65276;BME280;51875;49.994;14.052;2023-01-30T02:12:33;98461.75;;;-1.38;100.00
65276;BME280;51875;49.994;14.052;2023-01-30T02:13:49;98464.13;;;-1.48;100.00
65276;BME280;51875;49.994;14.052;2023-01-30T02:15:06;98464.94;;;-1.49;100.00
65276;BME280;51875;49.994;14.052;2023-01-30T02:16:21;98475.31;;;-1.44;100.00
65276;BME280;51875;49.994;14.052;2023-01-30T02:17:37;98472.91;;;-1.38;100.00
65276;BME280;51875;49.994;14.052;2023-01-30T02:18:53;98463.31;;;-1.45;100.00
65276;BME280;51875;49.994;14.052;2023-01-30T02:26:48;98446.06;;;-1.52;100.00
65276;BME280;51875;49.994;14.052;2023-01-30T02:33:40;98439.56;;;-1.35;100.00
65276;BME280;51875;49.994;14.052;2023-01-30T02:36:57;98422.56;;;-1.26;100.00
65276;BME280;51875;49.994;14.052;2023-01-30T02:38:28;98417.69;;;-1.14;100.00
65276;BME280;51875;49.994;14.052;2023-01-30T02:41:26;98424.53;;;-1.13;100.00
65276;BME280;51875;49.994;14.052;2023-01-30T02:45:21;98413.09;;;-1.31;100.00
65276;BME280;51875;49.994;14.052;2023-01-30T02:46:25;98402.94;;;-1.24;100.00
65276;BME280;51875;49.994;14.052;2023-01-30T02:48:04;98396.69;;;-1.39;100.00
65276;BME280;51875;49.994;14.052;2023-01-30T02:49:44;98408.00;;;-1.29;100.00
65276;BME280;51875;49.994;14.052;2023-01-30T02:51:08;98393.44;;;-1.29;100.00
65276;BME280;51875;49.994;14.052;2023-01-30T02:52:26;98379.00;;;-1.22;100.00
65276;BME280;51875;49.994;14.052;2023-01-30T02:53:42;98372.69;;;-1.39;100.00
65276;BME280;51875;49.994;14.052;2023-01-30T02:54:58;98368.25;;;-1.47;100.00
65276;BME280;51875;49.994;14.052;2023-01-30T02:56:14;98364.28;;;-1.31;100.00
65276;BME280;51875;49.994;14.052;2023-01-30T02:57:30;98357.56;;;-1.24;100.00
65276;BME280;51875;49.994;14.052;2023-01-30T02:58:50;98364.16;;;-1.38;100.00
65276;BME280;51875;49.994;14.052;2023-01-30T03:00:09;98363.59;;;-1.23;100.00
65276;BME280;51875;49.994;14.052;2023-01-30T03:05:00;98338.81;;;-1.18;100.00
65276;BME280;51875;49.994;14.052;2023-01-30T03:06:42;98328.25;;;-1.35;100.00
65276;BME280;51875;49.994;14.052;2023-01-30T03:11:02;98322.25;;;-1.36;100.00
65276;BME280;51875;49.994;14.052;2023-01-30T03:12:39;98331.19;;;-1.14;100.00
65276;BME280;51875;49.994;14.052;2023-01-30T03:14:10;98317.38;;;-1.20;100.00
65276;BME280;51875;49.994;14.052;2023-01-30T03:15:48;98313.72;;;-1.33;100.00
65276;BME280;51875;49.994;14.052;2023-01-30T03:17:05;98321.16;;;-1.50;100.00
65276;BME280;51875;49.994;14.052;2023-01-30T03:18:21;98313.50;;;-1.47;100.00
65276;BME280;51875;49.994;14.052;2023-01-30T03:19:37;98322.16;;;-1.40;100.00
65276;BME280;51875;49.994;14.052;2023-01-30T03:20:53;98334.88;;;-1.47;100.00
65276;BME280;51875;49.994;14.052;2023-01-30T03:22:09;98355.59;;;-1.37;100.00
65276;BME280;51875;49.994;14.052;2023-01-30T03:23:25;98350.47;;;-1.37;100.00
65276;BME280;51875;49.994;14.052;2023-01-30T03:24:40;98351.28;;;-1.40;100.00
65276;BME280;51875;49.994;14.052;2023-01-30T03:25:57;98352.84;;;-1.47;100.00
65276;BME280;51875;49.994;14.052;2023-01-30T03:27:13;98355.69;;;-1.33;100.00
65276;BME280;51875;49.994;14.052;2023-01-30T03:28:29;98372.00;;;-1.32;100.00
65276;BME280;51875;49.994;14.052;2023-01-30T03:29:45;98373.91;;;-1.20;100.00
65276;BME280;51875;49.994;14.052;2023-01-30T03:31:00;98362.25;;;-1.00;100.00
65276;BME280;51875;49.994;14.052;2023-01-30T03:32:16;98363.81;;;-1.09;100.00
65276;BME280;51875;49.994;14.052;2023-01-30T03:33:32;98355.13;;;-1.18;100.00
65276;BME280;51875;49.994;14.052;2023-01-30T03:34:47;98364.72;;;-1.06;100.00
65276;BME280;51875;49.994;14.052;2023-01-30T03:36:03;98376.91;;;-0.95;100.00
65276;BME280;51875;49.994;14.052;2023-01-30T03:37:19;98390.31;;;-1.12;100.00
65276;BME280;51875;49.994;14.052;2023-01-30T03:38:35;98377.94;;;-0.86;100.00
65276;BME280;51875;49.994;14.052;2023-01-30T03:39:51;98373.63;;;-0.85;100.00
65276;BME280;51875;49.994;14.052;2023-01-30T03:41:07;98376.03;;;-0.97;100.00
65276;BME280;51875;49.994;14.052;2023-01-30T03:42:22;98384.22;;;-1.19;100.00
65276;BME280;51875;49.994;14.052;2023-01-30T03:43:38;98382.00;;;-0.97;100.00
65276;BME280;51875;49.994;14.052;2023-01-30T03:44:54;98379.34;;;-1.03;100.00
65276;BME280;51875;49.994;14.052;2023-01-30T03:46:09;98377.03;;;-0.88;100.00
65276;BME280;51875;49.994;14.052;2023-01-30T03:47:25;98369.34;;;-0.88;100.00
65276;BME280;51875;49.994;14.052;2023-01-30T03:48:41;98364.88;;;-0.98;100.00
65276;BME280;51875;49.994;14.052;2023-01-30T03:49:57;98374.13;;;-1.06;100.00
65276;BME280;51875;49.994;14.052;2023-01-30T03:51:12;98370.81;;;-1.01;100.00
65276;BME280;51875;49.994;14.052;2023-01-30T03:52:28;98357.69;;;-1.16;100.00
65276;BME280;51875;49.994;14.052;2023-01-30T03:53:44;98344.34;;;-0.95;100.00
65276;BME280;51875;49.994;14.052;2023-01-30T03:54:59;98332.34;;;-0.96;100.00
65276;BME280;51875;49.994;14.052;2023-01-30T03:56:15;98322.81;;;-1.02;100.00
65276;BME280;51875;49.994;14.052;2023-01-30T03:57:30;98328.00;;;-0.98;100.00
65276;BME280;51875;49.994;14.052;2023-01-30T03:58:46;98332.97;;;-1.11;100.00
65276;BME280;51875;49.994;14.052;2023-01-30T04:00:02;98321.13;;;-1.01;100.00
65276;BME280;51875;49.994;14.052;2023-01-30T04:01:18;98309.38;;;-0.85;100.00
65276;BME280;51875;49.994;14.052;2023-01-30T04:02:35;98309.34;;;-0.88;100.00
65276;BME280;51875;49.994;14.052;2023-01-30T04:03:50;98307.44;;;-1.00;100.00
65276;BME280;51875;49.994;14.052;2023-01-30T04:05:06;98305.03;;;-0.91;100.00
65276;BME280;51875;49.994;14.052;2023-01-30T04:06:22;98297.28;;;-0.92;100.00
65276;BME280;51875;49.994;14.052;2023-01-30T04:07:37;98283.50;;;-0.97;100.00
65276;BME280;51875;49.994;14.052;2023-01-30T04:08:53;98269.75;;;-1.00;100.00
65276;BME280;51875;49.994;14.052;2023-01-30T04:10:09;98272.44;;;-0.93;100.00
65276;BME280;51875;49.994;14.052;2023-01-30T04:11:25;98263.50;;;-0.57;100.00
65276;BME280;51875;49.994;14.052;2023-01-30T04:12:43;98258.25;;;-0.66;100.00
65276;BME280;51875;49.994;14.052;2023-01-30T04:13:59;98255.72;;;-0.63;100.00
65276;BME280;51875;49.994;14.052;2023-01-30T04:15:15;98262.59;;;-0.62;100.00
65276;BME280;51875;49.994;14.052;2023-01-30T04:16:30;98253.28;;;-0.52;100.00
65276;BME280;51875;49.994;14.052;2023-01-30T04:17:46;98253.16;;;-0.63;100.00
65276;BME280;51875;49.994;14.052;2023-01-30T04:19:02;98257.97;;;-0.85;100.00
65276;BME280;51875;49.994;14.052;2023-01-30T04:20:18;98248.59;;;-0.81;100.00
65276;BME280;51875;49.994;14.052;2023-01-30T04:21:34;98229.94;;;-0.68;100.00
65276;BME280;51875;49.994;14.052;2023-01-30T04:22:50;98223.00;;;-0.74;100.00
65276;BME280;51875;49.994;14.052;2023-01-30T04:24:06;98218.75;;;-0.73;100.00
65276;BME280;51875;49.994;14.052;2023-01-30T04:25:21;98198.38;;;-0.56;100.00
65276;BME280;51875;49.994;14.052;2023-01-30T04:26:37;98200.94;;;-0.58;100.00
65276;BME280;51875;49.994;14.052;2023-01-30T04:27:53;98184.56;;;-0.64;100.00
65276;BME280;51875;49.994;14.052;2023-01-30T04:29:08;98182.94;;;-0.58;100.00
65276;BME280;51875;49.994;14.052;2023-01-30T04:30:24;98173.72;;;-0.41;100.00
65276;BME280;51875;49.994;14.052;2023-01-30T04:31:40;98163.09;;;-0.69;100.00
65276;BME280;51875;49.994;14.052;2023-01-30T04:32:55;98170.00;;;-0.65;100.00
65276;BME280;51875;49.994;14.052;2023-01-30T04:34:11;98170.31;;;-0.37;100.00
65276;BME280;51875;49.994;14.052;2023-01-30T04:35:26;98178.00;;;-0.39;100.00
65276;BME280;51875;49.994;14.052;2023-01-30T04:36:42;98176.41;;;-0.29;100.00
65276;BME280;51875;49.994;14.052;2023-01-30T04:37:58;98183.84;;;-0.54;100.00
65276;BME280;51875;49.994;14.052;2023-01-30T04:39:13;98178.72;;;-0.54;100.00
65276;BME280;51875;49.994;14.052;2023-01-30T04:40:29;98182.03;;;-0.61;100.00
65276;BME280;51875;49.994;14.052;2023-01-30T04:41:45;98172.91;;;-0.37;100.00
65276;BME280;51875;49.994;14.052;2023-01-30T04:43:00;98166.03;;;-0.37;100.00
65276;BME280;51875;49.994;14.052;2023-01-30T04:44:16;98171.38;;;-0.17;100.00
65276;BME280;51875;49.994;14.052;2023-01-30T04:45:32;98167.00;;;-0.27;100.00
65276;BME280;51875;49.994;14.052;2023-01-30T04:46:47;98166.81;;;-0.44;100.00
65276;BME280;51875;49.994;14.052;2023-01-30T04:48:03;98170.34;;;-0.34;100.00
65276;BME280;51875;49.994;14.052;2023-01-30T04:49:19;98169.81;;;-0.04;100.00
65276;BME280;51875;49.994;14.052;2023-01-30T04:50:34;98168.91;;;-0.07;100.00
65276;BME280;51875;49.994;14.052;2023-01-30T04:51:50;98165.44;;;-0.11;100.00
65276;BME280;51875;49.994;14.052;2023-01-30T04:53:06;98163.88;;;0.02;100.00
65276;BME280;51875;49.994;14.052;2023-01-30T04:54:22;98169.75;;;-0.11;100.00
65276;BME280;51875;49.994;14.052;2023-01-30T04:55:37;98184.34;;;-0.09;100.00
65276;BME280;51875;49.994;14.052;2023-01-30T04:56:53;98160.88;;;-0.37;100.00
65276;BME280;51875;49.994;14.052;2023-01-30T04:58:09;98176.28;;;-0.40;100.00
65276;BME280;51875;49.994;14.052;2023-01-30T04:59:25;98173.97;;;-0.17;100.00
65276;BME280;51875;49.994;14.052;2023-01-30T05:00:40;98179.88;;;-0.25;100.00
65276;BME280;51875;49.994;14.052;2023-01-30T05:01:56;98168.81;;;-0.18;100.00
65276;BME280;51875;49.994;14.052;2023-01-30T05:03:12;98174.09;;;-0.06;100.00
65276;BME280;51875;49.994;14.052;2023-01-30T05:04:28;98169.81;;;-0.04;100.00
65276;BME280;51875;49.994;14.052;2023-01-30T05:05:47;98180.22;;;0.07;100.00
65276;BME280;51875;49.994;14.052;2023-01-30T05:07:02;98194.63;;;-0.09;100.00
65276;BME280;51875;49.994;14.052;2023-01-30T05:08:18;98167.03;;;-0.24;100.00
65276;BME280;51875;49.994;14.052;2023-01-30T05:09:34;98179.16;;;-0.13;100.00
65276;BME280;51875;49.994;14.052;2023-01-30T05:10:49;98174.19;;;0.05;100.00
65276;BME280;51875;49.994;14.052;2023-01-30T05:12:05;98161.81;;;-0.30;100.00
65276;BME280;51875;49.994;14.052;2023-01-30T05:13:21;98174.69;;;-0.29;100.00
65276;BME280;51875;49.994;14.052;2023-01-30T05:14:36;98175.75;;;-0.11;100.00
65276;BME280;51875;49.994;14.052;2023-01-30T05:15:55;98171.41;;;-0.18;100.00
65276;BME280;51875;49.994;14.052;2023-01-30T05:17:11;98182.84;;;0.13;100.00
65276;BME280;51875;49.994;14.052;2023-01-30T05:18:26;98178.31;;;-0.12;100.00
65276;BME280;51875;49.994;14.052;2023-01-30T05:19:42;98176.69;;;-0.01;100.00
65276;BME280;51875;49.994;14.052;2023-01-30T05:21:09;98172.25;;;-0.19;100.00
65276;BME280;51875;49.994;14.052;2023-01-30T05:22:25;98178.41;;;-0.05;100.00
65276;BME280;51875;49.994;14.052;2023-01-30T05:23:41;98179.34;;;0.05;100.00
65276;BME280;51875;49.994;14.052;2023-01-30T05:24:57;98187.94;;;0.07;100.00
65276;BME280;51875;49.994;14.052;2023-01-30T05:26:14;98180.16;;;0.03;100.00
65276;BME280;51875;49.994;14.052;2023-01-30T05:27:29;98183.53;;;-0.03;100.00
65276;BME280;51875;49.994;14.052;2023-01-30T05:28:50;98166.50;;;0.08;100.00
65276;BME280;51875;49.994;14.052;2023-01-30T05:30:07;98167.25;;;-0.02;100.00
65276;BME280;51875;49.994;14.052;2023-01-30T05:31:23;98156.13;;;0.01;100.00
65276;BME280;51875;49.994;14.052;2023-01-30T05:32:39;98159.72;;;0.17;100.00
65276;BME280;51875;49.994;14.052;2023-01-30T05:33:55;98149.06;;;-0.18;100.00
65276;BME280;51875;49.994;14.052;2023-01-30T05:35:11;98138.66;;;-0.32;100.00
65276;BME280;51875;49.994;14.052;2023-01-30T05:36:26;98144.91;;;-0.06;100.00
65276;BME280;51875;49.994;14.052;2023-01-30T05:37:42;98145.78;;;-0.04;100.00
65276;BME280;51875;49.994;14.052;2023-01-30T05:38:57;98129.34;;;-0.20;100.00
65276;BME280;51875;49.994;14.052;2023-01-30T05:40:13;98133.72;;;-0.11;100.00
65276;BME280;51875;49.994;14.052;2023-01-30T05:41:28;98142.47;;;0.06;100.00
65276;BME280;51875;49.994;14.052;2023-01-30T05:42:44;98132.13;;;0.05;100.00
65276;BME280;51875;49.994;14.052;2023-01-30T05:44:00;98121.69;;;-0.11;100.00
65276;BME280;51875;49.994;14.052;2023-01-30T05:45:15;98121.72;;;-0.09;100.00
65276;BME280;51875;49.994;14.052;2023-01-30T05:46:31;98119.97;;;-0.13;100.00
65276;BME280;51875;49.994;14.052;2023-01-30T05:47:49;98108.03;;;-0.07;100.00
65276;BME280;51875;49.994;14.052;2023-01-30T05:49:05;98110.72;;;0.07;100.00
65276;BME280;51875;49.994;14.052;2023-01-30T05:50:22;98090.22;;;0.20;100.00
65276;BME280;51875;49.994;14.052;2023-01-30T05:51:37;98097.75;;;-0.04;100.00
65276;BME280;51875;49.994;14.052;2023-01-30T05:52:53;98091.88;;;0.11;100.00
65276;BME280;51875;49.994;14.052;2023-01-30T05:54:09;98095.41;;;0.26;100.00
65276;BME280;51875;49.994;14.052;2023-01-30T05:55:24;98088.38;;;0.00;100.00
65276;BME280;51875;49.994;14.052;2023-01-30T05:56:40;98089.16;;;-0.06;100.00
65276;BME280;51875;49.994;14.052;2023-01-30T05:57:56;98105.44;;;-0.08;100.00
65276;BME280;51875;49.994;14.052;2023-01-30T05:59:11;98098.09;;;0.40;100.00
65276;BME280;51875;49.994;14.052;2023-01-30T06:00:27;98105.53;;;0.01;100.00
65276;BME280;51875;49.994;14.052;2023-01-30T06:01:43;98102.16;;;0.08;100.00
65276;BME280;51875;49.994;14.052;2023-01-30T06:02:59;98096.09;;;0.05;100.00
65276;BME280;51875;49.994;14.052;2023-01-30T06:04:14;98093.47;;;-0.03;100.00
65276;BME280;51875;49.994;14.052;2023-01-30T06:05:30;98112.56;;;0.21;100.00
65276;BME280;51875;49.994;14.052;2023-01-30T06:06:48;98111.47;;;-0.05;100.00
65276;BME280;51875;49.994;14.052;2023-01-30T06:08:05;98098.53;;;-0.12;100.00
65276;BME280;51875;49.994;14.052;2023-01-30T06:09:20;98095.09;;;-0.13;100.00
65276;BME280;51875;49.994;14.052;2023-01-30T06:10:36;98108.09;;;0.03;100.00
65276;BME280;51875;49.994;14.052;2023-01-30T06:11:52;98090.97;;;0.03;100.00
65276;BME280;51875;49.994;14.052;2023-01-30T06:13:09;98083.28;;;0.12;100.00
65276;BME280;51875;49.994;14.052;2023-01-30T06:14:25;98084.13;;;0.08;100.00
65276;BME280;51875;49.994;14.052;2023-01-30T06:15:41;98094.53;;;0.21;100.00
65276;BME280;51875;49.994;14.052;2023-01-30T06:16:56;98073.00;;;0.12;100.00
65276;BME280;51875;49.994;14.052;2023-01-30T06:18:12;98081.72;;;0.28;100.00
65276;BME280;51875;49.994;14.052;2023-01-30T06:19:28;98087.75;;;0.32;100.00
65276;BME280;51875;49.994;14.052;2023-01-30T06:20:48;98097.13;;;0.22;100.00
65276;BME280;51875;49.994;14.052;2023-01-30T06:22:04;98104.78;;;0.16;100.00
65276;BME280;51875;49.994;14.052;2023-01-30T06:23:20;98093.66;;;0.19;100.00
65276;BME280;51875;49.994;14.052;2023-01-30T06:24:37;98089.47;;;0.30;100.00
65276;BME280;51875;49.994;14.052;2023-01-30T06:25:54;98090.25;;;0.23;100.00
65276;BME280;51875;49.994;14.052;2023-01-30T06:27:10;98098.75;;;0.14;100.00
65276;BME280;51875;49.994;14.052;2023-01-30T06:28:25;98085.13;;;0.26;100.00
65276;BME280;51875;49.994;14.052;2023-01-30T06:29:41;98093.63;;;0.17;100.00
65276;BME280;51875;49.994;14.052;2023-01-30T06:30:57;98075.72;;;0.30;100.00
65276;BME280;51875;49.994;14.052;2023-01-30T06:32:12;98074.84;;;0.27;100.00
65276;BME280;51875;49.994;14.052;2023-01-30T06:33:29;98064.47;;;0.17;100.00
65276;BME280;51875;49.994;14.052;2023-01-30T06:34:45;98076.47;;;0.16;100.00
65276;BME280;51875;49.994;14.052;2023-01-30T06:36:01;98064.56;;;0.29;100.00
65276;BME280;51875;49.994;14.052;2023-01-30T06:37:16;98062.06;;;0.43;100.00
65276;BME280;51875;49.994;14.052;2023-01-30T06:38:32;98076.66;;;0.43;100.00
65276;BME280;51875;49.994;14.052;2023-01-30T06:39:47;98067.13;;;0.29;100.00
65276;BME280;51875;49.994;14.052;2023-01-30T06:41:03;98067.16;;;0.35;100.00
65276;BME280;51875;49.994;14.052;2023-01-30T06:42:19;98049.97;;;0.33;100.00
65276;BME280;51875;49.994;14.052;2023-01-30T06:43:35;98057.72;;;0.37;100.00
65276;BME280;51875;49.994;14.052;2023-01-30T06:44:51;98056.03;;;0.39;100.00
65276;BME280;51875;49.994;14.052;2023-01-30T06:46:07;98051.69;;;0.32;100.00
65276;BME280;51875;49.994;14.052;2023-01-30T06:47:22;98043.13;;;0.35;100.00
65276;BME280;51875;49.994;14.052;2023-01-30T06:48:38;98059.44;;;0.32;100.00
65276;BME280;51875;49.994;14.052;2023-01-30T06:49:53;98064.66;;;0.45;100.00
65276;BME280;51875;49.994;14.052;2023-01-30T06:51:09;98066.38;;;0.46;100.00
65276;BME280;51875;49.994;14.052;2023-01-30T06:52:25;98058.69;;;0.55;100.00
65276;BME280;51875;49.994;14.052;2023-01-30T06:53:40;98069.84;;;0.54;100.00
65276;BME280;51875;49.994;14.052;2023-01-30T06:54:56;98074.19;;;0.60;100.00
65276;BME280;51875;49.994;14.052;2023-01-30T06:56:12;98068.09;;;0.47;100.00
65276;BME280;51875;49.994;14.052;2023-01-30T06:57:27;98070.69;;;0.47;100.00
65276;BME280;51875;49.994;14.052;2023-01-30T06:58:43;98068.97;;;0.52;100.00
65276;BME280;51875;49.994;14.052;2023-01-30T06:59:58;98072.50;;;0.63;100.00
65276;BME280;51875;49.994;14.052;2023-01-30T07:01:14;98058.72;;;0.58;100.00
65276;BME280;51875;49.994;14.052;2023-01-30T07:02:30;98062.91;;;0.42;100.00
65276;BME280;51875;49.994;14.052;2023-01-30T07:03:49;98057.00;;;0.57;100.00
65276;BME280;51875;49.994;14.052;2023-01-30T07:05:06;98059.63;;;0.65;100.00